Time;durP1;ratioP1;P1;durP2;ratioP2;P2;SDS_P1;SDS_P2;PMS_P1;PMS_P2;Temp;Humidity;BMP_temperature;BMP_pressure;BME280_temperature;BME280_humidity;BME280_pressure;Samples;Min_cycle;Max_cycle;Signal;HPM_P1;HPM_P2
2021/06/25 00:00:56;;;;;;;26.95;21.92;;;18.10;97.60;;;;;;5033586;28;20481;-61
2021/06/25 00:03:22;;;;;;;27.02;21.70;;;18.10;97.40;;;;;;5033582;28;20414;-61
2021/06/25 00:05:47;;;;;;;27.75;22.50;;;18.10;97.40;;;;;;5032836;28;20045;-61
2021/06/25 00:08:13;;;;;;;26.52;21.27;;;18.00;97.50;;;;;;5033146;28;20059;-61
2021/06/25 00:10:39;;;;;;;25.55;19.52;;;18.00;97.60;;;;;;5033063;28;20065;-61
2021/06/25 00:13:05;;;;;;;24.02;19.35;;;18.00;97.70;;;;;;5032486;28;20068;-60
2021/06/25 00:15:30;;;;;;;27.70;20.48;;;18.00;97.70;;;;;;5032572;28;20452;-59
2021/06/25 00:17:58;;;;;;;34.15;21.58;;;18.00;97.60;;;;;;5029030;28;20076;-61
2021/06/25 00:20:25;;;;;;;28.50;23.20;;;18.00;97.70;;;;;;5032906;28;20033;-60
2021/06/25 00:22:51;;;;;;;30.98;23.25;;;18.00;97.80;;;;;;5021572;28;20065;-60
2021/06/25 00:25:16;;;;;;;28.95;23.75;;;18.00;97.80;;;;;;5035226;28;20029;-60
2021/06/25 00:27:42;;;;;;;29.90;21.58;;;17.90;98.10;;;;;;5032082;28;20041;-60
2021/06/25 00:30:09;;;;;;;32.03;23.10;;;17.80;98.30;;;;;;5031494;28;20080;-60
2021/06/25 00:32:34;;;;;;;29.45;22.75;;;17.80;98.30;;;;;;5033161;28;20026;-61
2021/06/25 00:35:00;;;;;;;31.50;22.92;;;17.80;98.20;;;;;;5033005;28;20037;-61
2021/06/25 00:37:26;;;;;;;28.35;22.02;;;17.80;98.20;;;;;;4994913;28;20057;-59
2021/06/25 00:39:52;;;;;;;33.00;23.95;;;17.80;98.10;;;;;;5029554;28;20124;-59
2021/06/25 00:42:18;;;;;;;31.65;22.42;;;17.80;98.10;;;;;;5032378;28;20048;-59
2021/06/25 00:44:44;;;;;;;29.98;23.58;;;17.80;98.10;;;;;;5033063;28;20041;-59
2021/06/25 00:47:10;;;;;;;31.88;25.38;;;17.80;97.90;;;;;;5032784;28;20420;-59
2021/06/25 00:49:38;;;;;;;31.60;24.00;;;17.80;98.10;;;;;;5032251;28;20029;-59
2021/06/25 00:52:06;;;;;;;30.02;22.77;;;17.80;98.20;;;;;;5014820;28;20095;-56
2021/06/25 00:54:31;;;;;;;28.80;22.58;;;17.80;98.10;;;;;;5032140;28;20066;-57
2021/06/25 00:56:57;;;;;;;24.77;22.23;;;17.90;98.00;;;;;;5031765;28;20444;-59
2021/06/25 00:59:22;;;;;;;35.83;23.23;;;17.90;98.10;;;;;;5032033;28;20037;-57
2021/06/25 01:01:48;;;;;;;32.65;23.38;;;17.80;98.10;;;;;;5032443;28;20057;-59
2021/06/25 01:04:14;;;;;;;24.55;21.50;;;17.80;98.20;;;;;;5032051;28;20045;-57
2021/06/25 01:06:40;;;;;;;28.05;23.05;;;17.80;98.10;;;;;;5032049;28;20026;-58
2021/06/25 01:09:08;;;;;;;30.23;23.80;;;17.70;98.00;;;;;;5031968;28;20036;-58
2021/06/25 01:11:34;;;;;;;31.08;24.10;;;17.70;98.30;;;;;;5031842;28;20093;-59
2021/06/25 01:14:00;;;;;;;31.55;24.83;;;17.70;98.00;;;;;;5032331;28;20026;-59
2021/06/25 01:16:27;;;;;;;34.67;24.33;;;17.70;98.20;;;;;;5032268;28;20052;-60
2021/06/25 01:18:53;;;;;;;29.10;24.40;;;17.70;98.20;;;;;;5032595;28;20041;-59
2021/06/25 01:21:19;;;;;;;29.50;23.90;;;17.70;98.30;;;;;;5051456;28;20028;-56
2021/06/25 01:23:44;;;;;;;37.53;26.40;;;17.70;98.30;;;;;;5033884;28;20072;-59
2021/06/25 01:26:10;;;;;;;33.92;25.15;;;17.60;98.20;;;;;;5031304;28;20041;-57
2021/06/25 01:28:37;;;;;;;31.02;25.58;;;17.50;98.40;;;;;;5031097;28;20489;-56
2021/06/25 01:31:04;;;;;;;31.40;25.70;;;17.40;98.60;;;;;;5031572;28;20115;-59
2021/06/25 01:33:31;;;;;;;32.10;27.42;;;17.40;98.90;;;;;;5025067;28;20463;-58
2021/06/25 01:35:57;;;;;;;34.92;28.02;;;17.30;98.90;;;;;;5050998;28;20040;-59
2021/06/25 01:38:23;;;;;;;40.40;27.67;;;17.20;99.20;;;;;;5032312;28;20030;-59
2021/06/25 01:40:49;;;;;;;37.55;27.48;;;17.20;99.30;;;;;;5031821;28;20049;-57
2021/06/25 01:43:15;;;;;;;31.63;25.23;;;17.20;99.40;;;;;;5031355;28;20030;-59
2021/06/25 01:45:42;;;;;;;32.63;26.60;;;17.20;99.20;;;;;;5031067;28;20028;-60
2021/06/25 01:48:09;;;;;;;36.20;25.17;;;17.30;98.70;;;;;;5031536;28;20104;-59
2021/06/25 01:50:39;;;;;;;38.38;26.83;;;17.40;98.60;;;;;;5031947;28;20053;-59
2021/06/25 01:53:13;;;;;;;32.72;24.65;;;17.40;98.40;;;;;;5032060;28;20084;-58
2021/06/25 01:55:40;;;;;;;37.25;27.48;;;17.50;98.30;;;;;;5031436;28;20509;-60
2021/06/25 01:58:15;;;;;;;33.30;23.50;;;17.40;98.50;;;;;;5032512;28;20169;-57
2021/06/25 02:01:06;;;;;;;31.20;24.25;;;17.40;98.50;;;;;;5019162;28;20025;-59
2021/06/25 02:03:32;;;;;;;37.25;24.95;;;17.40;98.50;;;;;;5030629;28;20065;-56
2021/06/25 02:05:57;;;;;;;35.90;25.52;;;17.50;98.40;;;;;;5031422;28;20068;-58
2021/06/25 02:08:23;;;;;;;35.55;25.98;;;17.50;98.10;;;;;;5031275;28;20084;-56
2021/06/25 02:10:49;;;;;;;31.83;25.10;;;17.50;98.00;;;;;;5031721;28;20029;-59
2021/06/25 02:13:15;;;;;;;31.75;24.95;;;17.50;97.90;;;;;;5030576;28;20071;-59
2021/06/25 02:15:41;;;;;;;33.25;25.15;;;17.40;98.20;;;;;;5031581;28;20029;-58
2021/06/25 02:18:06;;;;;;;35.75;26.45;;;17.40;98.40;;;;;;5031003;28;20038;-58
2021/06/25 02:20:32;;;;;;;42.53;29.02;;;17.40;98.30;;;;;;5031588;28;20033;-59
2021/06/25 02:22:57;;;;;;;42.42;26.50;;;17.20;98.50;;;;;;5031573;28;20048;-59
2021/06/25 02:25:23;;;;;;;40.00;27.48;;;17.30;98.50;;;;;;5031575;28;20501;-58
2021/06/25 02:27:48;;;;;;;37.65;29.13;;;17.30;98.30;;;;;;5031615;28;20076;-55
2021/06/25 02:30:17;;;;;;;43.33;28.83;;;17.10;99.00;;;;;;5031180;28;20053;-56
2021/06/25 02:32:46;;;;;;;42.30;27.45;;;16.90;99.50;;;;;;5027173;28;20051;-59
2021/06/25 02:35:12;;;;;;;33.75;26.75;;;16.80;99.80;;;;;;5052059;28;20029;-57
2021/06/25 02:37:39;;;;;;;37.58;25.20;;;16.90;99.80;;;;;;5016632;28;20061;-57
2021/06/25 02:40:06;;;;;;;36.67;26.20;;;17.10;99.70;;;;;;5031779;28;20120;-56
2021/06/25 02:42:32;;;;;;;34.42;26.02;;;17.10;99.40;;;;;;5026307;28;20127;-58
2021/06/25 02:44:57;;;;;;;30.83;25.30;;;17.20;99.20;;;;;;5034502;28;20638;-56
2021/06/25 02:47:23;;;;;;;29.60;23.13;;;17.20;99.20;;;;;;5034062;28;20033;-57
2021/06/25 02:49:49;;;;;;;41.75;27.42;;;17.30;99.10;;;;;;5034459;28;20095;-58
2021/06/25 02:52:14;;;;;;;30.05;23.38;;;17.30;98.80;;;;;;5034106;28;20492;-59
2021/06/25 02:54:40;;;;;;;34.38;24.40;;;17.30;98.90;;;;;;5034721;28;20030;-59
2021/06/25 02:57:06;;;;;;;31.85;23.90;;;17.40;98.50;;;;;;5034180;28;20641;-59
2021/06/25 02:59:32;;;;;;;34.63;24.35;;;17.40;98.60;;;;;;5033518;28;20029;-60
2021/06/25 03:01:58;;;;;;;27.20;22.00;;;17.50;98.60;;;;;;5033987;28;20504;-59
2021/06/25 03:04:23;;;;;;;34.50;23.88;;;17.50;98.50;;;;;;5033970;28;20189;-57
2021/06/25 03:06:49;;;;;;;31.73;24.33;;;17.50;98.40;;;;;;5033887;28;20025;-57
2021/06/25 03:09:14;;;;;;;37.85;23.83;;;17.50;98.30;;;;;;5034277;28;20038;-57
2021/06/25 03:11:40;;;;;;;30.42;22.73;;;17.60;98.20;;;;;;5033046;28;20037;-58
2021/06/25 03:14:05;;;;;;;29.65;24.80;;;17.60;98.20;;;;;;5033959;28;20444;-56
2021/06/25 03:16:31;;;;;;;39.35;23.90;;;17.60;98.00;;;;;;5016652;28;20120;-60
2021/06/25 03:18:57;;;;;;;40.67;26.35;;;17.60;98.10;;;;;;5034168;28;20025;-59
2021/06/25 03:21:22;;;;;;;39.35;26.38;;;17.50;98.40;;;;;;5034138;28;20113;-60
2021/06/25 03:23:48;;;;;;;38.88;26.95;;;17.50;98.50;;;;;;5033699;28;20041;-59
2021/06/25 03:26:14;;;;;;;44.22;27.10;;;17.40;98.60;;;;;;5033156;28;20041;-57
2021/06/25 03:28:40;;;;;;;37.45;25.67;;;17.20;98.80;;;;;;5033504;28;20185;-57
2021/06/25 03:31:06;;;;;;;35.58;26.50;;;17.20;99.10;;;;;;5034756;28;20029;-58
2021/06/25 03:33:32;;;;;;;35.15;24.67;;;17.20;99.10;;;;;;5020200;28;20030;-59
2021/06/25 03:35:58;;;;;;;39.03;25.58;;;17.20;99.20;;;;;;5033527;28;20026;-58
2021/06/25 03:38:23;;;;;;;37.55;26.27;;;17.20;99.00;;;;;;5034080;28;20169;-59
2021/06/25 03:40:49;;;;;;;33.15;26.67;;;17.20;98.90;;;;;;5033557;28;20033;-57
2021/06/25 03:43:14;;;;;;;33.00;25.33;;;17.30;98.60;;;;;;5033923;28;20489;-59
2021/06/25 03:45:40;;;;;;;37.28;23.25;;;17.30;98.60;;;;;;5033109;28;20461;-59
2021/06/25 03:48:06;;;;;;;32.85;25.10;;;17.40;98.50;;;;;;5015548;28;20037;-58
2021/06/25 03:50:32;;;;;;;32.90;23.98;;;17.40;98.30;;;;;;5033771;28;20037;-58
2021/06/25 03:52:58;;;;;;;37.83;23.90;;;17.40;98.30;;;;;;5032931;28;20123;-55
2021/06/25 03:55:23;;;;;;;28.20;23.20;;;17.40;98.20;;;;;;5032755;28;20164;-57
2021/06/25 03:57:49;;;;;;;32.83;23.08;;;17.40;98.20;;;;;;5015496;28;20033;-56
2021/06/25 04:00:17;;;;;;;33.42;22.02;;;17.50;98.20;;;;;;5033365;28;20041;-57
2021/06/25 04:02:44;;;;;;;28.83;20.90;;;17.50;98.10;;;;;;5033268;28;20055;-57
2021/06/25 04:05:10;;;;;;;35.55;23.70;;;17.60;98.10;;;;;;5033373;28;20041;-55
2021/06/25 04:07:37;;;;;;;31.15;22.27;;;17.70;97.80;;;;;;5033151;28;20029;-58
2021/06/25 04:10:05;;;;;;;31.30;21.13;;;17.70;97.70;;;;;;5033605;28;20057;-59
2021/06/25 04:12:31;;;;;;;28.70;22.08;;;17.70;97.70;;;;;;5033009;28;20056;-59
2021/06/25 04:14:57;;;;;;;30.98;23.08;;;17.80;97.60;;;;;;5033564;28;20037;-58
2021/06/25 04:17:22;;;;;;;33.85;22.15;;;17.70;97.50;;;;;;5032845;28;20037;-60
2021/06/25 04:19:48;;;;;;;28.80;22.30;;;17.70;97.50;;;;;;5033565;28;20133;-56
2021/06/25 04:22:13;;;;;;;27.25;21.92;;;17.70;97.60;;;;;;5033168;28;20562;-57
2021/06/25 04:24:39;;;;;;;32.30;22.63;;;17.70;97.60;;;;;;5015425;28;20476;-57
2021/06/25 04:27:06;;;;;;;34.45;22.13;;;17.70;97.50;;;;;;5032398;28;20025;-60
2021/06/25 04:29:32;;;;;;;35.55;23.05;;;17.70;97.60;;;;;;5018869;28;20366;-60
2021/06/25 04:31:59;;;;;;;34.38;23.55;;;17.80;97.50;;;;;;5032585;28;20029;-57
2021/06/25 04:34:25;;;;;;;33.88;22.33;;;17.80;97.50;;;;;;5032686;28;20021;-59
2021/06/25 04:36:50;;;;;;;30.00;20.95;;;17.90;97.60;;;;;;5032200;28;20029;-58
2021/06/25 04:39:16;;;;;;;29.35;20.45;;;17.90;97.50;;;;;;5032571;28;20124;-57
2021/06/25 04:41:42;;;;;;;35.85;23.38;;;18.00;97.50;;;;;;5014457;28;20113;-59
2021/06/25 04:44:08;;;;;;;32.10;21.92;;;17.90;97.40;;;;;;5014478;28;20508;-57
2021/06/25 04:46:33;;;;;;;35.72;23.05;;;17.90;97.50;;;;;;5031783;28;20060;-58
2021/06/25 04:49:00;;;;;;;35.15;22.90;;;18.00;97.60;;;;;;5033010;28;20037;-59
2021/06/25 04:51:26;;;;;;;29.83;22.17;;;18.00;97.60;;;;;;5032279;28;20107;-56
2021/06/25 04:53:52;;;;;;;29.58;22.25;;;18.00;97.60;;;;;;5032521;28;20068;-57
2021/06/25 04:56:18;;;;;;;32.22;24.38;;;18.10;97.40;;;;;;5032079;28;20052;-56
2021/06/25 04:58:44;;;;;;;33.60;23.30;;;18.10;97.30;;;;;;5032199;28;20029;-58
2021/06/25 05:01:09;;;;;;;37.60;23.45;;;18.10;97.50;;;;;;5032758;28;20040;-56
2021/06/25 05:03:36;;;;;;;33.78;22.92;;;18.20;97.20;;;;;;5031672;28;20034;-56
2021/06/25 05:06:03;;;;;;;29.45;23.05;;;18.20;97.30;;;;;;5014501;28;20037;-56
2021/06/25 05:08:28;;;;;;;30.38;23.85;;;18.30;97.20;;;;;;5032648;28;20048;-59
2021/06/25 05:10:54;;;;;;;33.17;23.95;;;18.20;97.30;;;;;;5031955;28;20037;-56
2021/06/25 05:13:20;;;;;;;33.42;22.95;;;18.20;97.60;;;;;;5014533;28;20041;-60
2021/06/25 05:15:45;;;;;;;31.88;23.27;;;18.20;97.60;;;;;;5031828;28;20037;-57
2021/06/25 05:18:17;;;;;;;31.30;22.73;;;18.20;97.60;;;;;;5015535;28;20064;-58
2021/06/25 05:20:44;;;;;;;30.02;23.55;;;18.20;97.60;;;;;;5031675;28;20052;-58
2021/06/25 05:23:11;;;;;;;33.15;22.45;;;18.30;97.40;;;;;;5032540;28;20021;-60
2021/06/25 05:25:38;;;;;;;29.48;21.48;;;18.30;97.10;;;;;;5039084;28;20051;-58
2021/06/25 05:28:04;;;;;;;32.25;22.10;;;18.40;97.00;;;;;;5032818;28;20033;-58
2021/06/25 05:30:30;;;;;;;30.60;23.13;;;18.30;96.80;;;;;;5013390;28;20025;-58
2021/06/25 05:32:56;;;;;;;31.52;22.65;;;18.40;96.90;;;;;;5031457;28;20036;-57
2021/06/25 05:35:22;;;;;;;25.52;19.92;;;18.40;96.90;;;;;;5031854;28;20160;-58
2021/06/25 05:37:48;;;;;;;30.40;20.98;;;18.40;96.90;;;;;;5031321;28;20120;-56
2021/06/25 05:40:14;;;;;;;28.60;20.63;;;18.60;96.80;;;;;;5031733;28;20450;-58
2021/06/25 05:42:39;;;;;;;25.48;20.65;;;18.60;96.50;;;;;;5031809;28;20539;-58
2021/06/25 05:45:05;;;;;;;23.30;19.17;;;18.70;96.50;;;;;;5014403;28;20061;-57
2021/06/25 05:47:31;;;;;;;28.67;22.38;;;18.80;96.30;;;;;;5014270;28;20465;-58
2021/06/25 05:49:56;;;;;;;26.00;21.92;;;18.80;96.20;;;;;;5032609;28;20038;-57
2021/06/25 05:52:22;;;;;;;24.17;21.50;;;18.80;96.30;;;;;;5032179;28;20117;-58
2021/06/25 05:54:48;;;;;;;32.17;22.48;;;18.80;96.30;;;;;;5031690;28;20389;-55
2021/06/25 05:57:13;;;;;;;31.67;23.10;;;18.90;96.10;;;;;;5032289;28;20116;-59
2021/06/25 05:59:39;;;;;;;25.52;22.20;;;18.90;96.10;;;;;;5033037;28;20039;-59
2021/06/25 06:02:05;;;;;;;31.88;23.65;;;18.80;95.70;;;;;;5031684;28;20392;-59
2021/06/25 06:04:30;;;;;;;29.10;22.08;;;18.90;95.60;;;;;;5012753;28;20092;-59
2021/06/25 06:06:56;;;;;;;26.83;23.38;;;18.70;95.70;;;;;;5031068;28;20034;-59
2021/06/25 06:09:21;;;;;;;36.63;23.17;;;18.70;95.70;;;;;;5031296;28;20436;-59
2021/06/25 06:11:47;;;;;;;34.65;24.98;;;18.70;95.90;;;;;;5032183;28;20026;-58
2021/06/25 06:14:13;;;;;;;34.30;25.02;;;18.80;95.70;;;;;;4994512;28;20532;-57
2021/06/25 06:16:38;;;;;;;36.10;28.35;;;18.90;95.60;;;;;;5030502;28;20065;-58
2021/06/25 06:19:05;;;;;;;31.00;26.77;;;19.00;95.50;;;;;;5034839;28;20042;-59
2021/06/25 06:31:10;;;;;;;38.15;26.20;;;19.10;95.30;;;;;;5035818;28;20081;-56
2021/06/25 06:32:47;;;;;;;34.42;28.00;;;19.00;95.20;;;;;;5022172;28;20712;-59
2021/06/25 06:35:13;;;;;;;42.42;29.90;;;19.10;95.40;;;;;;5024448;28;20396;-58
2021/06/25 06:37:39;;;;;;;33.15;26.80;;;19.00;95.20;;;;;;5013993;28;20091;-57
2021/06/25 06:40:05;;;;;;;37.22;28.65;;;19.10;95.00;;;;;;5034999;28;20447;-59
2021/06/25 06:42:31;;;;;;;37.88;28.63;;;19.10;95.50;;;;;;5034305;28;20137;-55
2021/06/25 06:44:58;;;;;;;29.13;26.08;;;19.10;95.70;;;;;;5027122;28;20034;-56
2021/06/25 06:47:23;;;;;;;35.30;28.48;;;19.20;95.60;;;;;;5023517;28;20029;-57
2021/06/25 06:49:49;;;;;;;37.45;29.10;;;19.50;95.30;;;;;;5028373;28;20034;-59
2021/06/25 06:52:14;;;;;;;37.33;31.92;;;19.60;95.10;;;;;;5024565;28;20069;-59
2021/06/25 06:54:40;;;;;;;39.55;31.05;;;19.70;94.90;;;;;;5035005;28;20460;-56
2021/06/25 06:57:05;;;;;;;35.25;29.60;;;19.60;95.10;;;;;;5034208;28;20358;-57
2021/06/25 06:59:31;;;;;;;37.20;31.25;;;19.80;94.80;;;;;;5033718;28;20103;-61
2021/06/25 07:01:57;;;;;;;42.80;33.63;;;19.80;94.40;;;;;;5027196;28;20079;-56
2021/06/25 07:04:22;;;;;;;52.13;38.75;;;20.00;94.30;;;;;;5025210;28;20041;-62
2021/06/25 07:06:48;;;;;;;39.75;31.70;;;20.30;94.20;;;;;;5024036;28;20082;-55
2021/06/25 07:09:13;;;;;;;36.33;29.98;;;20.30;93.40;;;;;;5004864;28;20038;-55
2021/06/25 07:11:39;;;;;;;33.95;29.77;;;20.40;93.30;;;;;;5028392;28;20038;-60
2021/06/25 07:14:04;;;;;;;31.10;27.80;;;20.40;93.00;;;;;;5034735;28;20112;-61
2021/06/25 07:16:30;;;;;;;36.95;31.10;;;20.50;92.70;;;;;;5033127;28;20025;-58
2021/06/25 07:18:56;;;;;;;35.80;31.00;;;20.60;92.60;;;;;;5034137;28;20040;-57
2021/06/25 07:21:21;;;;;;;35.65;29.42;;;20.50;93.30;;;;;;5017642;28;20025;-56
2021/06/25 07:23:47;;;;;;;30.88;26.92;;;20.40;93.20;;;;;;5035012;28;20396;-61
2021/06/25 07:26:13;;;;;;;35.80;29.10;;;20.30;93.70;;;;;;5041759;28;20032;-57
2021/06/25 07:28:40;;;;;;;35.10;31.30;;;20.20;93.80;;;;;;5034295;28;20094;-59
2021/06/25 07:31:06;;;;;;;39.03;32.25;;;20.10;94.10;;;;;;5034614;28;20033;-57
2021/06/25 07:33:31;;;;;;;36.88;31.73;;;19.90;94.40;;;;;;5030477;28;20088;-58
2021/06/25 07:35:57;;;;;;;36.80;30.38;;;19.70;94.60;;;;;;5016181;28;20096;-61
2021/06/25 07:38:23;;;;;;;33.88;29.42;;;19.80;94.60;;;;;;5022481;28;20481;-57
2021/06/25 07:40:49;;;;;;;35.95;30.25;;;19.70;94.80;;;;;;5032349;28;20596;-58
2021/06/25 07:43:14;;;;;;;35.83;30.63;;;19.70;94.80;;;;;;5034773;28;20033;-54
2021/06/25 07:45:40;;;;;;;38.92;31.70;;;19.50;95.20;;;;;;5033917;28;20037;-60
2021/06/25 07:48:06;;;;;;;38.95;30.92;;;19.20;95.70;;;;;;5034237;28;20488;-60
2021/06/25 07:50:32;;;;;;;35.30;29.35;;;19.20;95.80;;;;;;5035525;28;20120;-60
2021/06/25 07:52:57;;;;;;;30.50;26.75;;;19.20;95.40;;;;;;5033367;28;20116;-59
2021/06/25 07:55:23;;;;;;;34.50;28.88;;;19.50;94.80;;;;;;5032913;28;20030;-59
2021/06/25 07:57:49;;;;;;;32.03;27.30;;;19.40;95.20;;;;;;5033423;28;20033;-59
2021/06/25 08:00:15;;;;;;;30.80;27.55;;;19.60;94.70;;;;;;5032875;28;20045;-58
2021/06/25 08:02:41;;;;;;;31.60;27.27;;;19.70;94.60;;;;;;5015721;28;20562;-59
2021/06/25 08:05:07;;;;;;;32.03;25.63;;;19.70;94.70;;;;;;5033554;28;20025;-59
2021/06/25 08:07:33;;;;;;;30.25;26.27;;;19.60;95.00;;;;;;5033115;28;20487;-57
2021/06/25 08:09:59;;;;;;;32.35;27.52;;;19.80;94.50;;;;;;5033424;28;20068;-58
2021/06/25 08:12:25;;;;;;;32.63;27.95;;;19.50;94.70;;;;;;5033038;28;20362;-60
2021/06/25 08:14:50;;;;;;;31.08;27.85;;;19.30;95.20;;;;;;5015637;28;20033;-60
2021/06/25 08:17:16;;;;;;;29.27;26.02;;;19.20;95.20;;;;;;5014534;28;20075;-61
2021/06/25 08:19:42;;;;;;;31.00;27.70;;;19.20;95.40;;;;;;5033381;28;20502;-57
2021/06/25 08:22:08;;;;;;;34.72;28.98;;;19.10;95.50;;;;;;5015824;28;20037;-58
2021/06/25 08:24:34;;;;;;;32.80;29.00;;;19.00;95.70;;;;;;5033112;28;20061;-56
2021/06/25 08:27:00;;;;;;;30.80;26.58;;;19.00;95.60;;;;;;5023581;28;20026;-59
2021/06/25 08:29:26;;;;;;;28.27;25.50;;;19.10;95.40;;;;;;5032549;28;20041;-60
2021/06/25 08:31:51;;;;;;;33.45;27.52;;;19.20;95.30;;;;;;5032601;28;20366;-58
2021/06/25 08:34:17;;;;;;;29.23;26.10;;;19.30;95.10;;;;;;5014795;28;20030;-59
2021/06/25 08:36:42;;;;;;;31.25;26.95;;;19.30;95.00;;;;;;5032362;28;20033;-62
2021/06/25 08:39:09;;;;;;;32.03;26.33;;;19.30;94.60;;;;;;5033232;28;20064;-57
2021/06/25 08:41:36;;;;;;;30.52;27.35;;;19.20;94.90;;;;;;5015059;28;20100;-60
2021/06/25 08:44:04;;;;;;;28.58;25.42;;;19.30;94.80;;;;;;5032404;28;20040;-60
2021/06/25 08:46:33;;;;;;;26.30;23.65;;;19.20;94.90;;;;;;5032072;28;20024;-58
2021/06/25 08:49:04;;;;;;;33.28;27.70;;;19.30;94.80;;;;;;5032172;28;20588;-58
2021/06/25 08:51:31;;;;;;;28.20;25.05;;;19.30;95.00;;;;;;5032786;28;20029;-57
2021/06/25 08:53:57;;;;;;;26.85;23.80;;;19.20;94.70;;;;;;5015076;28;20037;-58
2021/06/25 08:56:22;;;;;;;27.92;24.92;;;19.20;94.00;;;;;;5032666;28;20035;-58
2021/06/25 08:58:48;;;;;;;27.35;24.63;;;19.20;94.40;;;;;;5032576;28;20080;-58
2021/06/25 09:01:15;;;;;;;29.42;26.20;;;19.10;94.90;;;;;;5032669;28;20036;-58
2021/06/25 09:03:49;;;;;;;30.42;26.65;;;19.10;95.10;;;;;;5010241;28;20065;-59
2021/06/25 09:06:15;;;;;;;32.85;28.92;;;19.20;95.20;;;;;;5030117;28;20044;-57
2021/06/25 09:08:42;;;;;;;35.72;30.27;;;19.40;95.00;;;;;;5029444;28;20045;-58
2021/06/25 09:11:19;;;;;;;36.20;32.38;;;19.10;95.40;;;;;;5032252;28;20100;-59
2021/06/25 09:13:46;;;;;;;35.25;31.60;;;19.10;95.30;;;;;;5030355;28;20480;-60
2021/06/25 09:16:34;;;;;;;36.33;32.55;;;19.00;95.70;;;;;;5011287;28;20056;-61
2021/06/25 09:19:07;;;;;;;37.72;32.08;;;19.10;95.50;;;;;;5015404;28;20475;-60
2021/06/25 09:21:39;;;;;;;36.88;33.17;;;19.20;95.50;;;;;;5031891;28;20030;-61
2021/06/25 09:24:23;;;;;;;39.85;33.70;;;19.20;95.70;;;;;;5015442;28;20105;-60
2021/06/25 09:26:51;;;;;;;39.30;33.30;;;19.20;95.70;;;;;;5031759;28;20112;-60
2021/06/25 09:29:22;;;;;;;35.55;32.15;;;19.30;95.70;;;;;;5012658;28;20095;-59
2021/06/25 09:32:04;;;;;;;36.47;32.83;;;19.40;95.60;;;;;;5006386;28;20460;-61
2021/06/25 09:34:43;;;;;;;38.20;34.30;;;19.40;95.20;;;;;;5031678;28;20041;-59
2021/06/25 09:37:13;;;;;;;36.60;32.78;;;19.30;95.20;;;;;;5031201;28;20029;-60
2021/06/25 09:39:43;;;;;;;34.25;30.67;;;19.30;95.40;;;;;;5031542;28;20060;-61
2021/06/25 09:42:17;;;;;;;33.58;28.52;;;19.30;95.00;;;;;;5032153;28;20037;-61
2021/06/25 09:45:05;;;;;;;32.17;28.70;;;19.40;95.00;;;;;;5031892;28;20030;-61
2021/06/25 09:47:33;;;;;;;29.23;26.42;;;19.50;94.40;;;;;;5025984;28;20448;-60
2021/06/25 09:50:17;;;;;;;28.48;25.58;;;19.50;94.20;;;;;;5032769;28;20041;-58
2021/06/25 09:53:03;;;;;;;28.58;25.67;;;19.70;94.00;;;;;;5026593;28;20034;-59
2021/06/25 09:55:49;;;;;;;30.17;25.00;;;19.90;93.60;;;;;;5034562;28;20040;-60
2021/06/25 09:58:37;;;;;;;26.35;23.77;;;20.00;93.00;;;;;;5017165;28;20091;-61
2021/06/25 10:01:25;;;;;;;24.45;21.85;;;19.90;92.60;;;;;;5033307;28;20045;-60
2021/06/25 10:03:58;;;;;;;25.92;22.02;;;20.10;92.70;;;;;;5037507;28;20091;-60
2021/06/25 10:06:34;;;;;;;25.75;23.27;;;20.10;92.30;;;;;;5045036;28;20100;-60
2021/06/25 10:09:00;;;;;;;26.02;23.25;;;20.10;92.40;;;;;;5019969;28;20567;-60
2021/06/25 10:11:31;;;;;;;25.15;22.63;;;20.30;92.20;;;;;;5034867;28;20049;-61
2021/06/25 10:13:58;;;;;;;27.58;21.70;;;20.40;92.00;;;;;;5032675;28;20039;-59
2021/06/25 10:16:25;;;;;;;23.52;21.08;;;20.50;91.70;;;;;;5035462;28;20077;-61
2021/06/25 10:18:56;;;;;;;24.90;22.27;;;20.40;91.40;;;;;;5004913;28;20050;-59
2021/06/25 10:21:28;;;;;;;22.70;20.55;;;20.30;91.70;;;;;;4997492;28;20104;-60
2021/06/25 10:23:56;;;;;;;25.05;22.52;;;20.30;91.90;;;;;;5016973;28;20076;-61
2021/06/25 10:26:26;;;;;;;23.95;21.60;;;20.60;91.30;;;;;;5037664;28;20057;-61
2021/06/25 10:28:53;;;;;;;21.60;19.08;;;20.80;91.20;;;;;;5015565;28;20084;-59
2021/06/25 10:31:22;;;;;;;23.70;21.02;;;21.00;91.40;;;;;;5031487;28;20021;-61
2021/06/25 10:33:49;;;;;;;22.52;20.33;;;21.20;90.70;;;;;;5035539;28;20038;-59
2021/06/25 10:36:20;;;;;;;25.40;21.83;;;21.40;90.30;;;;;;5035605;28;20053;-60
2021/06/25 10:38:46;;;;;;;23.60;21.30;;;21.30;89.60;;;;;;5035588;28;20342;-59
2021/06/25 10:41:17;;;;;;;23.65;21.17;;;21.30;88.80;;;;;;5001017;28;20116;-59
2021/06/25 10:43:52;;;;;;;25.42;22.45;;;21.50;89.30;;;;;;5030846;28;20051;-60
2021/06/25 10:46:33;;;;;;;23.83;21.25;;;21.20;90.10;;;;;;5033969;28;20037;-60
2021/06/25 10:49:08;;;;;;;23.17;20.15;;;21.10;90.30;;;;;;5031279;28;20031;-60
2021/06/25 10:51:41;;;;;;;25.05;21.02;;;21.40;90.20;;;;;;5025888;28;20033;-58
2021/06/25 10:54:16;;;;;;;23.90;21.53;;;21.70;88.90;;;;;;5019062;28;20065;-58
2021/06/25 10:57:06;;;;;;;24.95;22.27;;;21.80;88.20;;;;;;5016261;28;20342;-59
2021/06/25 10:59:40;;;;;;;23.88;21.42;;;21.30;88.50;;;;;;5032045;28;20036;-60
2021/06/25 11:02:07;;;;;;;23.88;21.40;;;21.40;88.10;;;;;;5033913;28;20010;-58
2021/06/25 11:04:41;;;;;;;24.27;21.52;;;21.60;87.30;;;;;;5034218;28;20029;-60
2021/06/25 11:07:11;;;;;;;;;;;21.70;88.20;;;;;;5022339;28;20172;-59
2021/06/25 11:09:57;;;;;;;24.30;20.63;;;21.90;88.20;;;;;;5034058;28;19909;-59
2021/06/25 11:12:36;;;;;;;24.60;22.15;;;21.80;85.90;;;;;;5033069;28;20401;-57
2021/06/25 11:15:04;;;;;;;22.15;19.90;;;21.80;86.10;;;;;;5033630;28;20029;-60
2021/06/25 11:17:47;;;;;;;20.73;17.95;;;22.10;85.40;;;;;;5025615;28;20440;-58
2021/06/25 11:20:33;;;;;;;21.98;19.88;;;21.90;84.40;;;;;;5014754;28;20125;-56
2021/06/25 11:22:59;;;;;;;22.23;20.05;;;22.10;84.70;;;;;;5013409;28;20146;-58
2021/06/25 11:25:38;;;;;;;22.13;19.67;;;22.20;85.30;;;;;;5019499;28;20405;-57
2021/06/25 11:28:26;;;;;;;18.92;16.73;;;22.20;84.20;;;;;;5013149;28;20066;-58
2021/06/25 11:31:22;;;;;;;22.25;20.00;;;22.30;84.50;;;;;;4996505;28;20030;-60
2021/06/25 11:33:57;;;;;;;23.35;18.40;;;21.90;85.10;;;;;;5026514;28;20542;-58
2021/06/25 11:36:30;;;;;;;23.83;18.77;;;22.00;84.70;;;;;;5011952;28;20038;-57
2021/06/25 11:39:08;;;;;;;21.70;18.00;;;22.20;83.90;;;;;;5030440;28;20148;-56
2021/06/25 11:41:57;;;;;;;20.58;17.95;;;22.50;82.50;;;;;;5032948;28;20631;-56
2021/06/25 11:44:43;;;;;;;19.40;17.33;;;22.70;82.50;;;;;;5022441;28;20382;-59
2021/06/25 11:47:12;;;;;;;17.45;15.38;;;22.80;81.70;;;;;;4998896;28;20030;-58
2021/06/25 11:52:24;;;;;;;19.55;17.48;;;23.10;81.50;;;;;;5019356;28;20176;-59
2021/06/25 11:54:55;;;;;;;20.58;18.40;;;23.20;80.70;;;;;;4981695;28;20034;-58
2021/06/25 11:57:27;;;;;;;19.33;17.38;;;22.80;80.50;;;;;;5017225;28;20033;-58
2021/06/25 12:00:17;;;;;;;18.42;16.48;;;22.80;81.30;;;;;;5012377;28;20548;-57
2021/06/25 12:02:54;;;;;;;17.90;15.10;;;22.90;79.90;;;;;;5017750;28;20026;-57
2021/06/25 12:05:24;;;;;;;17.95;15.52;;;22.80;80.40;;;;;;4994574;28;20104;-58
2021/06/25 12:08:03;;;;;;;16.30;14.60;;;22.70;80.80;;;;;;5012763;28;20058;-56
2021/06/25 12:10:29;;;;;;;15.65;14.07;;;22.90;78.70;;;;;;5033284;28;20682;-58
2021/06/25 12:12:59;;;;;;;13.88;12.07;;;22.90;78.40;;;;;;5014766;28;20045;-54
2021/06/25 12:15:27;;;;;;;13.13;11.10;;;23.20;77.00;;;;;;4999223;28;20188;-60
2021/06/25 12:17:57;;;;;;;13.75;11.80;;;23.40;75.60;;;;;;5032858;28;20047;-60
2021/06/25 12:20:28;;;;;;;14.70;12.77;;;23.60;75.50;;;;;;5031214;28;20049;-61
2021/06/25 12:22:59;;;;;;;14.07;12.40;;;23.80;74.80;;;;;;5026001;28;20559;-61
2021/06/25 12:25:49;;;;;;;13.10;11.02;;;23.60;75.60;;;;;;5024041;28;20520;-60
2021/06/25 12:28:17;;;;;;;15.23;11.98;;;23.60;76.70;;;;;;5023603;28;20591;-61
2021/06/25 12:30:55;;;;;;;15.48;13.15;;;23.40;77.50;;;;;;5032455;28;20424;-60
2021/06/25 12:33:24;;;;;;;14.98;12.23;;;23.20;76.60;;;;;;5026101;28;20417;-60
2021/06/25 12:35:54;;;;;;;15.18;13.07;;;23.00;77.00;;;;;;5014590;28;20113;-59
2021/06/25 12:38:22;;;;;;;13.32;11.98;;;22.80;77.80;;;;;;5032147;28;20104;-60
2021/06/25 12:40:47;;;;;;;14.77;13.27;;;22.80;78.80;;;;;;5032298;28;20030;-56
2021/06/25 12:43:19;;;;;;;18.08;16.27;;;22.80;77.90;;;;;;5032529;28;20128;-61
2021/06/25 12:45:53;;;;;;;23.15;20.73;;;22.50;80.90;;;;;;5032237;28;20064;-59